createdAt,value
2023-04-19T00:02:19.390Z,10.58
2023-04-19T00:04:47.771Z,10.60
2023-04-19T00:07:16.969Z,10.62
2023-04-19T00:09:44.691Z,10.61
2023-04-19T00:12:12.287Z,10.59
2023-04-19T00:14:39.890Z,10.56
2023-04-19T00:17:07.550Z,10.53
2023-04-19T00:19:35.188Z,10.50
2023-04-19T00:22:02.798Z,10.48
2023-04-19T00:24:30.838Z,10.49
2023-04-19T00:26:59.333Z,10.51
2023-04-19T00:29:27.012Z,10.51
2023-04-19T00:31:54.634Z,10.49
2023-04-19T00:34:22.221Z,10.47
2023-04-19T00:36:49.790Z,10.44
2023-04-19T00:39:17.418Z,10.41
2023-04-19T00:41:45.045Z,10.38
2023-04-19T00:44:12.773Z,10.38
2023-04-19T00:46:40.632Z,10.38
2023-04-19T00:49:08.390Z,10.36
2023-04-19T00:51:36.270Z,10.34
2023-04-19T00:54:04.353Z,10.31
2023-04-19T00:56:31.953Z,10.28
2023-04-19T00:58:59.748Z,10.25
2023-04-19T01:01:27.735Z,10.22
2023-04-19T01:03:55.684Z,10.21
2023-04-19T01:06:23.486Z,10.24
2023-04-19T01:08:51.103Z,10.25
2023-04-19T01:11:18.717Z,10.24
2023-04-19T01:13:46.345Z,10.22
2023-04-19T01:16:14.010Z,10.18
2023-04-19T01:18:41.699Z,10.14
2023-04-19T01:21:09.369Z,10.10
2023-04-19T01:23:38.926Z,10.09
2023-04-19T01:26:06.579Z,10.10
2023-04-19T01:28:34.190Z,10.10
2023-04-19T01:31:01.832Z,10.10
2023-04-19T01:33:29.478Z,10.08
2023-04-19T01:35:57.099Z,10.06
2023-04-19T01:38:24.736Z,10.04
2023-04-19T01:40:52.403Z,10.02
2023-04-19T01:43:20.056Z,9.98
2023-04-19T01:45:47.711Z,9.97
2023-04-19T01:48:15.383Z,9.97
2023-04-19T01:50:43.013Z,9.98
2023-04-19T01:53:10.714Z,9.98
2023-04-19T01:55:39.465Z,9.97
2023-04-19T01:58:07.336Z,9.94
2023-04-19T02:00:34.948Z,9.90
2023-04-19T02:03:02.735Z,9.86
2023-04-19T02:05:30.544Z,9.83
2023-04-19T02:07:58.177Z,9.84
2023-04-19T02:10:25.910Z,9.86
2023-04-19T02:12:53.666Z,9.86
2023-04-19T02:15:21.410Z,9.86
2023-04-19T02:17:49.568Z,9.85
2023-04-19T02:20:17.292Z,9.82
2023-04-19T02:22:45.197Z,9.79
2023-04-19T02:25:12.857Z,9.75
2023-04-19T02:27:40.450Z,9.72
2023-04-19T02:30:08.852Z,9.74
2023-04-19T02:32:36.549Z,9.77
2023-04-19T02:35:04.714Z,9.78
2023-04-19T02:37:32.375Z,9.78
2023-04-19T02:40:00.039Z,9.76
2023-04-19T02:42:27.653Z,9.73
2023-04-19T02:44:55.444Z,9.70
2023-04-19T02:47:23.153Z,9.67
2023-04-19T02:49:51.042Z,9.66
2023-04-19T02:52:18.638Z,9.67
2023-04-19T02:54:46.384Z,9.66
2023-04-19T02:57:14.019Z,9.65
2023-04-19T02:59:41.767Z,9.60
2023-04-19T03:02:09.424Z,9.56
2023-04-19T03:04:37.648Z,9.51
2023-04-19T03:07:06.272Z,9.51
2023-04-19T03:09:33.902Z,9.52
2023-04-19T03:12:01.651Z,9.53
2023-04-19T03:14:29.338Z,9.51
2023-04-19T03:16:56.898Z,9.48
2023-04-19T03:19:24.618Z,9.43
2023-04-19T03:21:52.208Z,9.42
2023-04-19T03:24:20.415Z,9.42
2023-04-19T03:26:48.005Z,9.42
2023-04-19T03:29:15.733Z,9.40
2023-04-19T03:31:43.409Z,9.37
2023-04-19T03:34:11.103Z,9.32
2023-04-19T03:36:39.671Z,9.30
2023-04-19T03:39:07.283Z,9.32
2023-04-19T03:41:34.896Z,9.35
2023-04-19T03:44:02.508Z,9.36
2023-04-19T03:46:33.500Z,9.35
2023-04-19T03:49:01.302Z,9.33
2023-04-19T03:51:29.056Z,9.29
2023-04-19T03:53:56.646Z,9.26
2023-04-19T03:56:24.462Z,9.26
2023-04-19T03:58:52.085Z,9.28
2023-04-19T04:01:22.767Z,9.29
2023-04-19T04:03:50.718Z,9.28
2023-04-19T04:06:18.989Z,9.27
2023-04-19T04:08:46.948Z,9.25
2023-04-19T04:11:14.620Z,9.22
2023-04-19T04:13:43.339Z,9.18
2023-04-19T04:16:11.096Z,9.17
2023-04-19T04:18:38.856Z,9.18
2023-04-19T04:21:06.583Z,9.21
2023-04-19T04:23:34.225Z,9.24
2023-04-19T04:26:02.464Z,9.23
2023-04-19T04:28:30.128Z,9.21
2023-04-19T04:30:58.142Z,9.19
2023-04-19T04:33:26.859Z,9.16
2023-04-19T04:35:54.691Z,9.15
2023-04-19T04:38:25.065Z,9.16
2023-04-19T04:40:53.762Z,9.17
2023-04-19T04:43:22.826Z,9.18
2023-04-19T04:45:50.547Z,9.17
2023-04-19T04:48:18.516Z,9.15
2023-04-19T04:50:46.180Z,9.12
2023-04-19T04:53:13.791Z,9.11
2023-04-19T04:55:41.432Z,9.14
2023-04-19T04:58:09.073Z,9.17
2023-04-19T05:00:36.893Z,9.20
2023-04-19T05:03:04.732Z,9.21
2023-04-19T05:05:32.486Z,9.20
2023-04-19T05:08:00.161Z,9.22
2023-04-19T05:10:27.954Z,9.25
2023-04-19T05:12:55.664Z,9.28
2023-04-19T05:15:23.312Z,9.26
2023-04-19T05:17:50.961Z,9.22
2023-04-19T05:20:18.745Z,9.17
2023-04-19T05:22:46.390Z,9.14
2023-04-19T05:25:13.991Z,9.13
2023-04-19T05:27:41.646Z,9.10
2023-04-19T05:30:09.596Z,9.06
2023-04-19T05:32:37.455Z,9.01
2023-04-19T05:35:06.121Z,8.97
2023-04-19T05:37:33.772Z,8.93
2023-04-19T05:40:01.643Z,8.88
2023-04-19T05:42:29.398Z,8.84
2023-04-19T05:44:57.167Z,8.78
2023-04-19T05:47:24.966Z,8.74
2023-04-19T05:49:52.707Z,8.73
2023-04-19T05:52:20.668Z,8.71
2023-04-19T05:54:48.439Z,8.69
2023-04-19T05:57:16.341Z,8.64
2023-04-19T05:59:44.174Z,8.58
2023-04-19T06:02:11.885Z,8.55
2023-04-19T06:04:39.784Z,8.52
2023-04-19T06:07:13.585Z,8.50
2023-04-19T06:09:50.097Z,8.47
2023-04-19T06:12:17.735Z,8.45
2023-04-19T06:14:45.559Z,8.45
2023-04-19T06:17:14.269Z,8.45
2023-04-19T06:19:42.446Z,8.47
2023-04-19T06:22:10.108Z,8.50
2023-04-19T06:24:37.724Z,8.51
2023-04-19T06:27:05.379Z,8.55
2023-04-19T06:29:35.277Z,8.63
2023-04-19T06:32:02.976Z,8.73
2023-04-19T06:34:30.878Z,8.82
2023-04-19T06:36:58.522Z,8.92
2023-04-19T06:39:27.302Z,9.01
2023-04-19T06:41:54.918Z,9.08
2023-04-19T06:44:22.516Z,9.13
2023-04-19T06:46:50.164Z,9.20
2023-04-19T06:49:17.893Z,9.27
2023-04-19T06:51:45.904Z,9.32
2023-04-19T06:54:13.522Z,9.39
2023-04-19T06:56:45.941Z,9.47
2023-04-19T06:59:14.355Z,9.54
2023-04-19T07:01:42.527Z,9.58
2023-04-19T07:04:10.790Z,9.63
2023-04-19T07:06:38.800Z,9.72
2023-04-19T07:09:07.103Z,9.80
2023-04-19T07:11:34.800Z,9.84
2023-04-19T07:14:02.501Z,9.82
2023-04-19T07:16:30.250Z,9.84
2023-04-19T07:18:57.956Z,9.88
2023-04-19T07:21:28.754Z,9.96
2023-04-19T07:23:56.361Z,10.03
2023-04-19T07:26:24.199Z,10.06
2023-04-19T07:31:34.170Z,10.05
2023-04-19T07:34:01.846Z,10.02
2023-04-19T07:36:29.852Z,9.95
2023-04-19T07:38:57.964Z,9.89
2023-04-19T07:41:25.592Z,9.81
2023-04-19T07:43:53.282Z,9.76
2023-04-19T07:46:20.916Z,9.67
2023-04-19T07:48:48.687Z,9.43
2023-04-19T07:51:16.851Z,9.15
2023-04-19T07:53:44.968Z,8.88
2023-04-19T07:56:13.131Z,8.64
2023-04-19T07:58:41.587Z,8.43
2023-04-19T08:01:09.492Z,8.31
2023-04-19T08:03:37.862Z,8.21
2023-04-19T08:06:07.246Z,8.07
2023-04-19T08:08:36.068Z,7.90
2023-04-19T08:11:04.734Z,7.73
2023-04-19T08:13:32.383Z,7.69
2023-04-19T08:18:31.378Z,7.71
2023-04-19T08:20:59.116Z,7.71
2023-04-19T08:23:32.044Z,7.67
2023-04-19T08:26:09.165Z,7.61
2023-04-19T08:28:36.802Z,7.53
2023-04-19T08:31:07.923Z,7.48
2023-04-19T08:33:35.905Z,7.46
2023-04-19T08:36:03.919Z,7.42
2023-04-19T08:38:31.659Z,7.35
2023-04-19T08:40:59.295Z,7.30
2023-04-19T08:43:28.915Z,7.31
2023-04-19T08:45:56.574Z,7.33
2023-04-19T08:48:24.276Z,7.37
2023-04-19T08:51:01.259Z,7.43
2023-04-19T08:53:31.659Z,7.48
2023-04-19T08:58:45.855Z,7.58
2023-04-19T09:01:34.016Z,7.63
2023-04-19T09:04:20.759Z,7.65
2023-04-19T09:06:54.144Z,7.63
2023-04-19T09:11:53.914Z,7.57
2023-04-19T09:14:22.233Z,7.57
2023-04-19T09:16:52.132Z,7.59
2023-04-19T09:19:24.735Z,7.63
2023-04-19T09:21:54.714Z,7.66
2023-04-19T09:25:14.549Z,7.68
2023-04-19T09:27:31.300Z,7.71
2023-04-19T09:30:00.548Z,7.72
2023-04-19T09:32:28.844Z,7.73
2023-04-19T09:34:57.288Z,7.73
2023-04-19T09:37:39.112Z,7.74
2023-04-19T09:40:25.762Z,7.76
2023-04-19T09:48:07.468Z,7.90
2023-04-19T09:50:46.220Z,7.93
2023-04-19T09:53:22.877Z,7.97
2023-04-19T09:56:00.207Z,8.02
2023-04-19T09:58:41.597Z,8.09
2023-04-19T10:01:16.316Z,8.16
2023-04-19T10:03:46.223Z,8.26
2023-04-19T10:08:50.005Z,8.41
2023-04-19T10:11:18.811Z,8.47
2023-04-19T10:13:46.687Z,8.49
2023-04-19T10:16:19.696Z,8.48
2023-04-19T10:18:52.416Z,8.46
2023-04-19T10:21:20.051Z,8.43
2023-04-19T10:23:47.624Z,8.40
2023-04-19T10:26:15.292Z,8.37
2023-04-19T10:28:42.895Z,8.35
2023-04-19T10:31:13.865Z,8.33
2023-04-19T10:33:41.634Z,8.33
2023-04-19T10:36:10.850Z,8.32
2023-04-19T10:38:47.327Z,8.32
2023-04-19T10:41:19.159Z,8.29
2023-04-19T10:43:48.380Z,8.25
2023-04-19T10:46:22.358Z,8.24
2023-04-19T10:48:56.234Z,8.26
2023-04-19T10:51:28.168Z,8.26
2023-04-19T10:54:00.026Z,8.27
2023-04-19T10:56:34.074Z,8.27
2023-04-19T10:59:08.519Z,8.25
2023-04-19T11:01:46.036Z,8.21
2023-04-19T11:04:19.840Z,8.16
2023-04-19T11:06:50.633Z,8.14
2023-04-19T11:09:28.496Z,8.14
2023-04-19T11:12:08.419Z,8.14
2023-04-19T11:14:52.776Z,8.12
2023-04-19T11:17:28.263Z,8.06
2023-04-19T11:19:59.504Z,8.01
2023-04-19T11:22:38.344Z,7.94
2023-04-19T11:25:11.891Z,7.93
2023-04-19T11:27:41.057Z,7.95
2023-04-19T11:30:11.363Z,7.95
2023-04-19T11:32:45.921Z,7.94
2023-04-19T11:35:13.982Z,7.94
2023-04-19T11:37:41.673Z,7.93
2023-04-19T11:40:09.710Z,7.90
2023-04-19T11:42:37.395Z,7.89
2023-04-19T11:45:09.018Z,7.91
2023-04-19T11:47:50.816Z,7.98
2023-04-19T11:50:38.355Z,8.07
2023-04-19T11:53:23.086Z,8.14
2023-04-19T11:56:16.901Z,8.19
2023-04-19T11:58:45.661Z,8.22
2023-04-19T12:01:14.837Z,8.21
2023-04-19T12:03:53.632Z,8.18
2023-04-19T12:06:25.821Z,8.17
2023-04-19T12:08:54.328Z,8.15
2023-04-19T12:11:26.864Z,8.14
2023-04-19T12:14:14.589Z,8.14
2023-04-19T12:16:45.067Z,8.15
2023-04-19T12:19:14.342Z,8.17
2023-04-19T12:21:42.226Z,8.19
2023-04-19T12:24:09.897Z,8.22
2023-04-19T12:26:38.060Z,8.27
2023-04-19T12:29:05.821Z,8.32
2023-04-19T12:31:33.660Z,8.37
2023-04-19T12:34:01.529Z,8.39
2023-04-19T12:36:30.472Z,8.40
2023-04-19T12:38:58.204Z,8.40
2023-04-19T12:41:25.948Z,8.35
2023-04-19T12:43:53.565Z,8.31
2023-04-19T12:46:21.662Z,8.27
2023-04-19T12:48:49.469Z,8.25
2023-04-19T12:51:17.301Z,8.22
2023-04-19T12:53:49.475Z,8.13
2023-04-19T12:56:17.778Z,8.04
2023-04-19T12:58:45.511Z,7.92
2023-04-19T13:01:13.188Z,7.81
2023-04-19T13:03:41.114Z,7.71
2023-04-19T13:06:09.091Z,7.57
2023-04-19T13:08:44.786Z,7.46
2023-04-19T13:11:15.445Z,7.35
2023-04-19T13:13:43.220Z,7.29
2023-04-19T13:16:11.158Z,7.27
2023-04-19T13:18:39.030Z,7.23
2023-04-19T13:21:08.298Z,7.19
2023-04-19T13:23:36.612Z,7.13
2023-04-19T13:26:04.343Z,7.09
2023-04-19T13:28:32.101Z,7.07
2023-04-19T13:30:59.719Z,7.06
2023-04-19T13:33:27.417Z,7.06
2023-04-19T13:35:55.120Z,7.05
2023-04-19T13:38:23.127Z,7.02
2023-04-19T13:40:51.367Z,6.97
2023-04-19T13:43:19.037Z,6.93
2023-04-19T13:45:46.756Z,6.90
2023-04-19T13:48:20.130Z,6.88
2023-04-19T13:50:49.172Z,6.84
2023-04-19T13:53:18.896Z,6.83
2023-04-19T13:55:46.580Z,6.82
2023-04-19T13:58:14.401Z,6.83
2023-04-19T14:00:42.127Z,6.80
2023-04-19T14:03:09.963Z,6.77
2023-04-19T14:05:37.731Z,6.78
2023-04-19T14:08:05.650Z,6.80
2023-04-19T14:10:34.375Z,6.83
2023-04-19T14:13:02.291Z,6.85
2023-04-19T14:15:29.971Z,6.85
2023-04-19T14:17:57.685Z,6.81
2023-04-19T14:20:25.431Z,6.80
2023-04-19T14:22:55.269Z,6.81
2023-04-19T14:25:23.117Z,6.84
2023-04-19T14:27:50.774Z,6.88
2023-04-19T14:30:18.543Z,6.91
2023-04-19T14:32:46.335Z,6.91
2023-04-19T14:35:14.294Z,6.89
2023-04-19T14:37:42.028Z,6.90
2023-04-19T14:40:11.118Z,6.92
2023-04-19T14:42:38.947Z,6.92
2023-04-19T14:45:07.525Z,6.91
2023-04-19T14:47:35.200Z,6.92
2023-04-19T14:50:02.986Z,6.94
2023-04-19T14:52:30.842Z,6.96
2023-04-19T14:54:59.770Z,7.00
2023-04-19T14:57:27.798Z,7.05
2023-04-19T14:59:59.034Z,7.10
2023-04-19T15:02:27.386Z,7.12
2023-04-19T15:04:55.412Z,7.10
2023-04-19T15:07:23.159Z,7.06
2023-04-19T15:09:50.858Z,7.06
2023-04-19T15:12:18.507Z,7.08
2023-04-19T15:14:46.154Z,7.10
2023-04-19T15:17:13.774Z,7.09
2023-04-19T15:19:41.495Z,7.06
2023-04-19T15:22:09.115Z,7.03
2023-04-19T15:24:36.799Z,7.02
2023-04-19T15:27:04.425Z,7.03
2023-04-19T15:29:32.163Z,7.05
2023-04-19T15:31:59.934Z,7.08
2023-04-19T15:34:27.689Z,7.09
2023-04-19T15:36:55.354Z,7.05
2023-04-19T15:39:23.019Z,6.99
2023-04-19T15:41:51.291Z,6.95
2023-04-19T15:44:18.990Z,6.96
2023-04-19T15:46:46.691Z,6.98
2023-04-19T15:49:14.574Z,7.00
2023-04-19T15:51:42.597Z,6.98
2023-04-19T15:54:11.218Z,6.95
2023-04-19T15:56:38.875Z,6.93
2023-04-19T15:59:06.466Z,6.94
2023-04-19T16:01:34.131Z,6.94
2023-04-19T16:04:03.732Z,6.98
2023-04-19T16:06:32.003Z,7.00
2023-04-19T16:08:59.600Z,7.02
2023-04-19T16:11:27.242Z,7.02
2023-04-19T16:13:54.898Z,7.02
2023-04-19T16:16:22.534Z,7.03
2023-04-19T16:18:50.387Z,7.04
2023-04-19T16:21:18.055Z,7.06
2023-04-19T16:23:45.821Z,7.10
2023-04-19T16:26:13.404Z,7.14
2023-04-19T16:28:41.054Z,7.16
2023-04-19T16:31:08.801Z,7.14
2023-04-19T16:33:36.401Z,7.10
2023-04-19T16:36:04.572Z,7.11
2023-04-19T16:38:32.210Z,7.14
2023-04-19T16:41:02.063Z,7.17
2023-04-19T16:43:29.725Z,7.18
2023-04-19T16:45:57.366Z,7.15
2023-04-19T16:48:25.028Z,7.12
2023-04-19T16:50:52.654Z,7.10
2023-04-19T16:53:20.616Z,7.08
2023-04-19T16:55:48.296Z,7.08
2023-04-19T16:58:16.107Z,7.09
2023-04-19T17:00:43.714Z,7.09
2023-04-19T17:03:11.972Z,7.05
2023-04-19T17:05:40.474Z,6.99
2023-04-19T17:08:08.281Z,6.94
2023-04-19T17:10:36.010Z,6.91
2023-04-19T17:13:03.779Z,6.91
2023-04-19T17:15:31.620Z,6.92
2023-04-19T17:17:59.418Z,6.93
2023-04-19T17:20:27.070Z,6.92
2023-04-19T17:22:54.840Z,6.91
2023-04-19T17:25:23.638Z,6.90
2023-04-19T17:27:51.604Z,6.90
2023-04-19T17:30:19.288Z,6.93
2023-04-19T17:32:47.079Z,6.98
2023-04-19T17:35:15.156Z,7.02
2023-04-19T17:37:43.703Z,7.04
2023-04-19T17:40:11.815Z,7.04
2023-04-19T17:42:39.440Z,7.03
2023-04-19T17:45:11.087Z,7.02
2023-04-19T17:47:39.586Z,7.04
2023-04-19T17:50:09.090Z,7.08
2023-04-19T17:52:36.793Z,7.09
2023-04-19T17:55:04.851Z,7.10
2023-04-19T17:57:34.070Z,7.09
2023-04-19T18:00:05.543Z,7.08
2023-04-19T18:02:34.162Z,7.07
2023-04-19T18:05:02.592Z,7.06
2023-04-19T18:07:30.429Z,7.09
2023-04-19T18:09:58.016Z,7.15
2023-04-19T18:12:26.001Z,7.18
2023-04-19T18:14:53.655Z,7.19
2023-04-19T18:17:21.846Z,7.20
2023-04-19T18:19:49.807Z,7.18
2023-04-19T18:22:17.421Z,7.16
2023-04-19T18:24:47.011Z,7.15
2023-04-19T18:27:14.665Z,7.17
2023-04-19T18:29:42.260Z,7.20
2023-04-19T18:32:09.948Z,7.23
2023-04-19T18:34:37.689Z,7.22
2023-04-19T18:37:16.276Z,7.22
2023-04-19T18:39:44.022Z,7.19
2023-04-19T18:42:11.694Z,7.15
2023-04-19T18:44:52.103Z,7.14
2023-04-19T18:47:22.115Z,7.16
2023-04-19T18:50:03.443Z,7.19
2023-04-19T18:52:37.511Z,7.21
2023-04-19T18:55:06.250Z,7.19
2023-04-19T18:57:35.465Z,7.15
2023-04-19T19:00:06.035Z,7.11
2023-04-19T19:02:36.427Z,7.08
2023-04-19T19:05:07.526Z,7.08
2023-04-19T19:07:37.472Z,7.09
2023-04-19T19:10:16.789Z,7.07
2023-04-19T19:12:46.544Z,7.05
2023-04-19T19:15:14.306Z,7.02
2023-04-19T19:17:43.193Z,7.00
2023-04-19T19:20:11.404Z,7.00
2023-04-19T19:22:39.201Z,7.02
2023-04-19T19:25:08.056Z,7.05
2023-04-19T19:27:35.879Z,7.04
2023-04-19T19:30:04.894Z,7.05
2023-04-19T19:32:32.608Z,7.03
2023-04-19T19:35:04.794Z,7.00
2023-04-19T19:37:37.767Z,6.98
2023-04-19T19:40:06.769Z,6.98
2023-04-19T19:42:35.067Z,6.99
2023-04-19T19:45:03.209Z,7.02
2023-04-19T19:47:34.990Z,7.04
2023-04-19T19:52:34.642Z,7.05
2023-04-19T19:55:02.273Z,7.03
2023-04-19T19:58:20.649Z,7.02
2023-04-19T20:00:39.988Z,7.05
2023-04-19T20:03:07.124Z,7.10
2023-04-19T20:05:35.187Z,7.13
2023-04-19T20:08:14.366Z,7.14
2023-04-19T20:10:42.266Z,7.12
2023-04-19T20:13:11.914Z,7.08
2023-04-19T20:15:39.901Z,7.03
2023-04-19T20:18:08.290Z,7.02
2023-04-19T20:20:36.382Z,7.05
2023-04-19T20:23:04.116Z,7.09
2023-04-19T20:25:32.779Z,7.12
2023-04-19T20:28:01.272Z,7.13
2023-04-19T20:30:28.878Z,7.12
2023-04-19T20:32:56.731Z,7.12
2023-04-19T20:35:24.671Z,7.10
2023-04-19T20:37:52.279Z,7.10
2023-04-19T20:40:20.001Z,7.12
2023-04-19T20:42:47.645Z,7.15
2023-04-19T20:45:15.412Z,7.15
2023-04-19T20:47:43.232Z,7.14
2023-04-19T20:50:11.279Z,7.12
2023-04-19T20:52:39.045Z,7.08
2023-04-19T20:55:07.882Z,7.04
2023-04-19T20:57:35.489Z,7.02
2023-04-19T21:00:04.715Z,7.04
2023-04-19T21:02:32.604Z,7.07
2023-04-19T21:05:00.680Z,7.09
2023-04-19T21:07:28.303Z,7.10
2023-04-19T21:09:55.902Z,7.09
2023-04-19T21:12:23.576Z,7.06
2023-04-19T21:14:52.910Z,7.04
2023-04-19T21:17:20.955Z,7.06
2023-04-19T21:19:48.590Z,7.09
2023-04-19T21:22:16.230Z,7.10
2023-04-19T21:24:43.920Z,7.08
2023-04-19T21:27:11.543Z,7.05
2023-04-19T21:29:39.123Z,7.02
2023-04-19T21:32:06.707Z,6.99
2023-04-19T21:34:34.293Z,6.98
2023-04-19T21:37:01.959Z,7.01
2023-04-19T21:39:29.541Z,7.05
2023-04-19T21:41:57.587Z,7.06
2023-04-19T21:44:25.232Z,7.06
2023-04-19T21:46:52.943Z,7.05
2023-04-19T21:49:20.844Z,7.03
2023-04-19T21:51:48.745Z,7.01
2023-04-19T21:54:26.520Z,7.03
2023-04-19T21:57:01.612Z,7.07
2023-04-19T21:59:30.653Z,7.10
2023-04-19T22:01:58.868Z,7.10
2023-04-19T22:04:30.605Z,7.09
2023-04-19T22:07:02.445Z,7.07
2023-04-19T22:09:30.754Z,7.05
2023-04-19T22:11:58.448Z,7.04
2023-04-19T22:14:26.157Z,7.07
2023-04-19T22:16:54.273Z,7.11
2023-04-19T22:19:24.708Z,7.12
2023-04-19T22:21:53.533Z,7.12
2023-04-19T22:24:22.314Z,7.11
2023-04-19T22:26:50.984Z,7.07
2023-04-19T22:29:19.529Z,7.04
2023-04-19T22:31:47.465Z,7.02
2023-04-19T22:34:15.279Z,7.04
2023-04-19T22:36:42.849Z,7.08
2023-04-19T22:39:11.085Z,7.11
2023-04-19T22:41:38.700Z,7.13
2023-04-19T22:44:06.306Z,7.11
2023-04-19T22:46:33.977Z,7.08
2023-04-19T22:49:02.087Z,7.06
2023-04-19T22:51:32.686Z,7.08
2023-04-19T22:54:00.610Z,7.13
2023-04-19T22:56:28.470Z,7.13
2023-04-19T22:58:57.377Z,7.13
2023-04-19T23:01:24.990Z,7.12
2023-04-19T23:03:52.616Z,7.12
2023-04-19T23:06:20.202Z,7.13
2023-04-19T23:08:47.819Z,7.17
2023-04-19T23:11:15.474Z,7.20
2023-04-19T23:13:43.965Z,7.22
2023-04-19T23:16:11.918Z,7.20
2023-04-19T23:18:40.318Z,7.18
2023-04-19T23:21:08.700Z,7.13
2023-04-19T23:23:36.313Z,7.08
2023-04-19T23:26:03.992Z,7.07
2023-04-19T23:28:31.793Z,7.07
2023-04-19T23:30:59.467Z,7.08
2023-04-19T23:33:27.188Z,7.08
2023-04-19T23:35:54.797Z,7.06
2023-04-19T23:38:22.414Z,7.03
2023-04-19T23:40:50.018Z,7.02
2023-04-19T23:43:17.620Z,7.00
2023-04-19T23:45:45.310Z,7.02
2023-04-19T23:48:12.929Z,7.06
2023-04-19T23:50:40.603Z,7.09
2023-04-19T23:53:08.199Z,7.11
2023-04-19T23:55:36.730Z,7.11
2023-04-19T23:58:04.581Z,7.10
